Time;durP1;ratioP1;P1;durP2;ratioP2;P2;SDS_P1;SDS_P2;PMS_P1;PMS_P2;Temp;Humidity;BMP_temperature;BMP_pressure;BME280_temperature;BME280_humidity;BME280_pressure;Samples;Min_cycle;Max_cycle;Signal;HPM_P1;HPM_P2
2023/06/17 00:00:33;;;;;;;7.40;4.30;;;17.10;99.90;;;;;;5088931;28;20050;-73
2023/06/17 00:03:19;;;;;;;5.72;4.40;;;17.10;99.90;;;;;;5099588;28;20472;-73
2023/06/17 00:06:04;;;;;;;5.63;4.00;;;17.10;99.90;;;;;;5097855;28;20032;-74
2023/06/17 00:08:51;;;;;;;6.30;4.53;;;17.10;99.90;;;;;;5094550;28;20480;-73
2023/06/17 00:11:37;;;;;;;5.28;3.90;;;17.10;99.90;;;;;;5092355;28;20044;-73
2023/06/17 00:14:24;;;;;;;5.88;4.30;;;17.10;99.90;;;;;;5092118;28;20032;-74
2023/06/17 00:17:10;;;;;;;4.95;3.90;;;17.10;99.90;;;;;;5104182;28;20373;-73
2023/06/17 00:19:57;;;;;;;7.90;4.75;;;17.10;99.90;;;;;;5097489;28;20028;-74
2023/06/17 00:22:44;;;;;;;6.68;4.50;;;17.00;99.90;;;;;;5089514;28;20038;-73
2023/06/17 00:25:30;;;;;;;8.57;4.10;;;17.00;99.90;;;;;;5091404;28;20081;-72
2023/06/17 00:28:16;;;;;;;7.80;4.90;;;17.00;99.90;;;;;;5091858;28;20119;-71
2023/06/17 00:31:02;;;;;;;8.02;4.65;;;17.00;99.90;;;;;;5101490;28;20523;-72
2023/06/17 00:33:48;;;;;;;5.63;4.00;;;17.00;99.90;;;;;;5094589;28;20055;-72
2023/06/17 00:36:34;;;;;;;6.68;4.22;;;17.00;99.90;;;;;;5088895;28;20458;-73
2023/06/17 00:39:20;;;;;;;7.43;4.63;;;17.00;99.90;;;;;;5110365;28;20111;-72
2023/06/17 00:42:07;;;;;;;5.93;3.80;;;17.00;99.90;;;;;;5109333;28;20042;-72
2023/06/17 00:44:53;;;;;;;5.18;4.15;;;17.00;99.90;;;;;;5104353;28;20042;-72
2023/06/17 00:47:40;;;;;;;5.43;3.92;;;17.00;99.90;;;;;;5090316;28;20040;-71
2023/06/17 00:50:28;;;;;;;5.60;4.40;;;17.00;99.90;;;;;;5099211;28;20036;-72
2023/06/17 00:53:14;;;;;;;5.35;3.72;;;17.00;99.90;;;;;;5089877;28;20036;-74
2023/06/17 00:56:01;;;;;;;5.63;4.20;;;17.00;99.90;;;;;;5090751;28;20094;-72
2023/06/17 00:58:49;;;;;;;6.50;4.25;;;17.00;99.90;;;;;;5088915;28;20043;-72
2023/06/17 01:01:36;;;;;;;6.68;4.53;;;17.00;99.90;;;;;;5095375;28;20036;-72
2023/06/17 01:04:22;;;;;;;6.82;4.30;;;17.00;99.90;;;;;;5088683;28;20557;-72
2023/06/17 01:07:40;;;;;;;6.32;4.28;;;17.00;99.90;;;;;;5078739;28;20039;-72
2023/06/17 01:10:56;;;;;;;5.68;4.20;;;17.00;99.90;;;;;;5097921;28;20039;-72
2023/06/17 01:13:45;;;;;;;5.80;4.68;;;17.00;99.90;;;;;;5101998;28;20024;-74
2023/06/17 01:16:32;;;;;;;6.15;4.53;;;17.00;99.90;;;;;;5089936;28;20047;-72
2023/06/17 01:19:26;;;;;;;7.28;4.95;;;17.00;99.90;;;;;;5094140;28;20037;-71
2023/06/17 01:22:15;;;;;;;6.00;4.50;;;17.00;99.90;;;;;;5090703;28;20028;-71
2023/06/17 01:25:02;;;;;;;6.43;4.82;;;17.10;99.90;;;;;;5089603;28;20684;-70
2023/06/17 01:27:49;;;;;;;8.15;4.50;;;17.10;99.90;;;;;;5087858;28;20105;-72
2023/06/17 01:30:35;;;;;;;5.68;4.85;;;17.10;99.90;;;;;;5097863;28;20153;-71
2023/06/17 01:33:22;;;;;;;6.10;5.05;;;17.10;99.90;;;;;;5089196;28;20024;-72
2023/06/17 01:36:29;;;;;;;5.63;4.70;;;17.10;99.90;;;;;;5093385;28;20051;-72
2023/06/17 01:39:21;;;;;;;5.60;4.57;;;17.10;99.90;;;;;;5097777;28;20385;-74
2023/06/17 01:42:15;;;;;;;5.38;4.32;;;17.10;99.90;;;;;;5088682;28;20028;-71
2023/06/17 01:45:03;;;;;;;7.10;4.45;;;17.20;99.90;;;;;;5088067;28;20035;-71
2023/06/17 01:47:50;;;;;;;6.40;4.93;;;17.20;99.90;;;;;;5090555;28;20371;-71
2023/06/17 01:50:36;;;;;;;5.95;4.63;;;17.10;99.90;;;;;;5096707;28;20035;-70
2023/06/17 01:53:22;;;;;;;7.25;4.47;;;17.20;99.90;;;;;;5099557;28;20020;-71
2023/06/17 01:56:08;;;;;;;6.28;4.57;;;17.20;99.90;;;;;;5089359;28;20178;-71
2023/06/17 01:58:54;;;;;;;6.88;5.10;;;17.10;99.90;;;;;;5101288;28;20034;-71
2023/06/17 02:01:39;;;;;;;5.78;3.83;;;17.20;99.90;;;;;;5091614;28;20039;-70
2023/06/17 02:04:25;;;;;;;7.35;4.50;;;17.20;99.90;;;;;;5095740;28;20034;-70
2023/06/17 02:07:11;;;;;;;6.78;4.78;;;17.10;99.90;;;;;;5104162;28;20140;-69
2023/06/17 02:09:57;;;;;;;8.85;5.18;;;17.20;99.90;;;;;;5091282;28;20039;-69
2023/06/17 02:12:43;;;;;;;7.57;5.25;;;17.20;99.90;;;;;;5090462;28;20044;-70
2023/06/17 02:15:30;;;;;;;5.93;4.40;;;17.20;99.90;;;;;;5108698;28;20047;-71
2023/06/17 02:18:17;;;;;;;7.03;4.88;;;17.20;99.90;;;;;;5107538;28;20438;-71
2023/06/17 02:21:03;;;;;;;7.75;4.93;;;17.20;99.90;;;;;;5094302;28;20035;-71
2023/06/17 02:23:49;;;;;;;7.28;4.97;;;17.20;99.90;;;;;;5080232;28;20039;-70
2023/06/17 02:26:35;;;;;;;6.40;4.75;;;17.20;99.90;;;;;;5106468;28;20449;-71
2023/06/17 02:29:21;;;;;;;6.03;4.72;;;17.20;99.90;;;;;;5099361;28;20067;-70
2023/06/17 02:32:07;;;;;;;7.35;5.68;;;17.20;99.90;;;;;;5092889;28;20028;-70
2023/06/17 02:34:53;;;;;;;8.18;6.07;;;17.20;99.90;;;;;;5078814;28;20039;-70
2023/06/17 02:37:40;;;;;;;6.82;4.90;;;17.20;99.90;;;;;;5099180;28;20462;-70
2023/06/17 02:40:26;;;;;;;6.35;4.95;;;17.20;99.90;;;;;;5094283;28;20047;-71
2023/06/17 02:43:12;;;;;;;7.05;4.88;;;17.20;99.90;;;;;;5093982;28;20035;-69
2023/06/17 02:45:58;;;;;;;8.18;5.45;;;17.30;99.90;;;;;;5081975;28;20024;-69
2023/06/17 02:48:43;;;;;;;8.32;5.80;;;17.30;99.90;;;;;;5092695;28;20460;-70
2023/06/17 02:51:29;;;;;;;5.93;4.78;;;17.30;99.90;;;;;;5107502;28;20066;-70
2023/06/17 02:54:15;;;;;;;7.30;5.40;;;17.30;99.90;;;;;;5093555;28;20119;-69
2023/06/17 02:57:01;;;;;;;7.32;5.20;;;17.30;99.90;;;;;;5103084;28;20127;-70
2023/06/17 02:59:47;;;;;;;7.35;5.43;;;17.30;99.90;;;;;;5095208;28;20081;-70
2023/06/17 03:02:33;;;;;;;8.43;5.90;;;17.30;99.90;;;;;;5105012;28;20404;-71
2023/06/17 03:05:19;;;;;;;7.40;5.30;;;17.30;99.90;;;;;;5097018;28;20024;-71
2023/06/17 03:08:09;;;;;;;7.07;5.47;;;17.30;99.90;;;;;;5096678;28;20036;-69
2023/06/17 03:10:55;;;;;;;8.65;5.13;;;17.30;99.90;;;;;;5097211;28;20032;-69
2023/06/17 03:13:40;;;;;;;7.85;5.28;;;17.30;99.90;;;;;;5099995;28;20373;-69
2023/06/17 03:16:29;;;;;;;8.52;5.40;;;17.30;99.90;;;;;;5091909;28;20117;-69
2023/06/17 03:19:15;;;;;;;8.20;5.93;;;17.30;99.90;;;;;;5091513;28;20028;-69
2023/06/17 03:22:01;;;;;;;6.78;5.20;;;17.30;99.90;;;;;;5091643;28;20234;-68
2023/06/17 03:24:47;;;;;;;8.80;5.65;;;17.30;99.90;;;;;;5105125;28;20043;-68
2023/06/17 03:27:33;;;;;;;9.20;6.97;;;17.30;99.90;;;;;;5107165;28;20035;-68
2023/06/17 03:30:22;;;;;;;8.07;5.95;;;17.30;99.90;;;;;;5080386;28;20036;-68
2023/06/17 03:33:12;;;;;;;9.02;5.75;;;17.30;99.90;;;;;;5082912;28;20117;-71
2023/06/17 03:35:58;;;;;;;7.68;6.13;;;17.30;99.90;;;;;;5103762;28;20404;-70
2023/06/17 03:38:45;;;;;;;7.68;5.70;;;17.40;99.90;;;;;;5095655;28;20085;-66
2023/06/17 03:41:31;;;;;;;7.43;5.28;;;17.40;99.90;;;;;;5092118;28;20032;-73
2023/06/17 03:44:17;;;;;;;7.93;6.07;;;17.40;99.90;;;;;;5093671;28;20472;-65
2023/06/17 03:47:03;;;;;;;8.23;5.80;;;17.40;99.90;;;;;;5092629;28;20080;-66
2023/06/17 03:49:49;;;;;;;10.23;6.40;;;17.40;99.90;;;;;;5101850;28;20039;-68
2023/06/17 03:52:35;;;;;;;7.43;6.15;;;17.40;99.90;;;;;;5093019;28;20028;-67
2023/06/17 03:55:22;;;;;;;8.20;6.25;;;17.40;99.90;;;;;;5103881;28;20404;-68
2023/06/17 03:58:08;;;;;;;8.05;5.55;;;17.40;99.90;;;;;;5095199;28;20069;-68
2023/06/17 04:00:54;;;;;;;8.63;6.43;;;17.40;99.90;;;;;;5093151;28;20032;-68
2023/06/17 04:03:41;;;;;;;7.35;5.80;;;17.40;99.90;;;;;;5095741;28;20099;-68
2023/06/17 04:06:27;;;;;;;6.65;5.45;;;17.40;99.90;;;;;;5100415;28;20027;-68
2023/06/17 04:09:14;;;;;;;8.50;6.25;;;17.40;99.90;;;;;;5108792;28;20854;-68
2023/06/17 04:12:01;;;;;;;7.45;6.30;;;17.40;99.90;;;;;;5090752;28;20036;-67
2023/06/17 04:14:47;;;;;;;7.40;5.72;;;17.40;99.90;;;;;;5092507;28;20046;-68
2023/06/17 04:17:34;;;;;;;6.82;5.50;;;17.50;99.90;;;;;;5109308;28;20068;-68
2023/06/17 04:20:25;;;;;;;8.90;5.97;;;17.50;99.90;;;;;;5105315;28;20480;-68
2023/06/17 04:23:11;;;;;;;9.30;6.00;;;17.50;99.90;;;;;;5091020;28;20024;-68
2023/06/17 04:25:57;;;;;;;8.35;6.47;;;17.50;99.90;;;;;;5096371;28;20035;-68
2023/06/17 04:28:43;;;;;;;8.50;6.47;;;17.60;99.90;;;;;;5104205;28;20038;-69
2023/06/17 04:31:29;;;;;;;9.82;7.03;;;17.50;99.90;;;;;;5090791;28;20039;-67
2023/06/17 04:34:21;;;;;;;8.80;6.95;;;17.60;99.90;;;;;;5102068;28;20046;-68
2023/06/17 04:37:08;;;;;;;9.40;7.32;;;17.60;99.90;;;;;;5088992;28;20480;-68
2023/06/17 04:39:55;;;;;;;8.90;6.90;;;17.70;99.90;;;;;;5101294;28;20392;-68
2023/06/17 04:42:44;;;;;;;9.55;6.85;;;17.70;99.90;;;;;;5096548;28;20068;-68
2023/06/17 04:45:30;;;;;;;9.52;7.88;;;17.70;99.90;;;;;;5095289;28;20036;-68
2023/06/17 04:48:16;;;;;;;9.00;7.47;;;17.70;99.90;;;;;;5089131;28;20041;-68
2023/06/17 04:51:02;;;;;;;12.15;7.97;;;17.80;99.90;;;;;;5088509;28;20419;-67
2023/06/17 04:53:48;;;;;;;10.13;8.40;;;17.80;99.90;;;;;;5095051;28;20487;-68
2023/06/17 04:56:34;;;;;;;12.57;7.88;;;17.80;99.90;;;;;;5099522;28;20488;-68
2023/06/17 04:59:21;;;;;;;13.50;8.75;;;17.80;99.90;;;;;;5088573;28;20039;-68
2023/06/17 05:02:07;;;;;;;10.90;8.10;;;17.90;99.90;;;;;;5104710;27;20065;-66
2023/06/17 05:04:53;;;;;;;9.43;7.25;;;17.90;99.90;;;;;;5112774;27;20028;-67
2023/06/17 05:07:39;;;;;;;11.23;8.50;;;17.90;99.90;;;;;;5102968;28;20031;-68
2023/06/17 05:10:25;;;;;;;10.23;7.88;;;18.00;99.90;;;;;;5103070;28;20450;-68
2023/06/17 05:13:11;;;;;;;11.57;8.70;;;18.10;99.90;;;;;;5101989;28;20472;-69
2023/06/17 05:15:57;;;;;;;8.98;7.80;;;18.20;99.90;;;;;;5097319;28;20040;-69
2023/06/17 05:18:43;;;;;;;10.95;7.63;;;18.30;99.90;;;;;;5108919;28;20038;-68
2023/06/17 05:21:29;;;;;;;12.38;7.80;;;18.40;99.90;;;;;;5102603;28;20493;-68
2023/06/17 05:24:15;;;;;;;11.55;8.25;;;18.40;99.90;;;;;;5087819;28;20019;-68
2023/06/17 05:27:01;;;;;;;9.32;7.53;;;18.50;99.90;;;;;;5097834;28;20388;-68
2023/06/17 05:29:47;;;;;;;11.02;7.15;;;18.50;99.90;;;;;;5090715;28;20106;-68
2023/06/17 05:32:33;;;;;;;10.57;6.93;;;18.60;99.90;;;;;;5092541;28;20071;-68
2023/06/17 05:35:19;;;;;;;10.75;7.53;;;18.60;99.90;;;;;;5090803;28;20067;-67
2023/06/17 05:38:05;;;;;;;11.23;7.63;;;18.70;99.90;;;;;;5109207;28;20027;-67
2023/06/17 05:40:51;;;;;;;10.73;7.43;;;18.70;99.90;;;;;;5098653;28;20040;-67
2023/06/17 05:43:37;;;;;;;9.13;6.88;;;18.70;99.90;;;;;;5089234;28;20032;-67
2023/06/17 05:46:23;;;;;;;10.13;6.80;;;18.80;99.90;;;;;;5097978;28;20039;-68
2023/06/17 05:49:09;;;;;;;9.02;7.10;;;18.70;99.90;;;;;;5097691;28;20032;-68
2023/06/17 05:51:54;;;;;;;9.60;7.25;;;18.70;99.90;;;;;;5096259;28;20031;-67
2023/06/17 05:54:40;;;;;;;10.40;7.57;;;18.70;99.90;;;;;;5089411;28;20546;-68
2023/06/17 05:57:26;;;;;;;8.90;7.28;;;18.70;99.90;;;;;;5107662;28;20043;-69
2023/06/17 06:00:13;;;;;;;10.63;8.05;;;18.70;99.90;;;;;;5103535;28;20020;-67
2023/06/17 06:02:59;;;;;;;10.90;7.68;;;18.80;99.90;;;;;;5100459;28;20496;-67
2023/06/17 06:05:45;;;;;;;9.23;7.00;;;18.90;99.90;;;;;;5098204;28;20504;-68
2023/06/17 06:08:31;;;;;;;9.35;7.13;;;19.00;99.90;;;;;;5113114;28;20032;-68
2023/06/17 06:11:17;;;;;;;9.93;7.40;;;19.10;99.90;;;;;;5096862;28;20043;-69
2023/06/17 06:14:03;;;;;;;10.25;7.85;;;19.10;99.90;;;;;;5103040;28;20089;-68
2023/06/17 06:16:49;;;;;;;11.48;7.60;;;19.20;99.90;;;;;;5103119;28;20437;-69
2023/06/17 06:19:35;;;;;;;19.00;7.55;;;19.20;99.90;;;;;;5103282;28;20091;-68
2023/06/17 06:22:21;;;;;;;10.65;7.40;;;19.20;99.90;;;;;;5081997;28;20038;-67
2023/06/17 06:25:07;;;;;;;11.23;8.32;;;19.20;99.90;;;;;;5107324;28;20443;-67
2023/06/17 06:27:53;;;;;;;10.77;7.25;;;19.30;99.90;;;;;;5096114;28;20024;-67
2023/06/17 06:30:39;;;;;;;10.05;7.85;;;19.30;99.90;;;;;;5092680;28;20115;-67
2023/06/17 06:33:25;;;;;;;10.48;7.22;;;19.30;99.90;;;;;;5093259;28;20036;-68
2023/06/17 06:36:11;;;;;;;10.20;7.40;;;19.40;99.90;;;;;;5095593;28;20044;-69
2023/06/17 06:38:57;;;;;;;10.00;8.13;;;19.40;99.90;;;;;;5099527;28;20032;-68
2023/06/17 06:41:43;;;;;;;11.15;7.90;;;19.40;99.90;;;;;;5110538;28;20059;-67
2023/06/17 06:44:29;;;;;;;11.85;8.18;;;19.50;99.90;;;;;;5097193;28;20071;-67
2023/06/17 06:47:15;;;;;;;10.13;7.85;;;19.60;99.90;;;;;;5104336;28;20124;-70
2023/06/17 06:50:01;;;;;;;11.13;8.18;;;19.70;99.90;;;;;;5100207;28;20074;-68
2023/06/17 06:52:47;;;;;;;10.05;8.05;;;19.80;99.90;;;;;;5094629;28;20037;-67
2023/06/17 06:55:33;;;;;;;12.55;8.57;;;19.90;99.90;;;;;;5088794;28;20109;-69
2023/06/17 06:58:19;;;;;;;12.63;8.95;;;19.90;99.90;;;;;;5095199;28;20040;-68
2023/06/17 07:01:05;;;;;;;14.32;8.98;;;20.00;99.90;;;;;;5093013;28;20028;-68
2023/06/17 07:03:51;;;;;;;10.57;7.50;;;20.10;99.90;;;;;;5107594;28;20036;-67
2023/06/17 07:06:37;;;;;;;10.68;8.07;;;20.10;99.90;;;;;;5095049;28;20066;-68
2023/06/17 07:09:23;;;;;;;10.23;7.47;;;20.20;99.90;;;;;;5099374;28;20039;-68
2023/06/17 07:12:10;;;;;;;10.88;7.63;;;20.30;99.90;;;;;;5092106;28;20509;-69
2023/06/17 07:14:56;;;;;;;10.93;8.70;;;20.30;99.90;;;;;;5092805;28;20572;-68
2023/06/17 07:17:42;;;;;;;11.38;7.97;;;20.40;99.90;;;;;;5093152;28;20048;-67
2023/06/17 07:20:28;;;;;;;14.25;8.20;;;20.50;99.90;;;;;;5101047;28;20032;-68
2023/06/17 07:23:13;;;;;;;10.95;7.97;;;20.50;99.90;;;;;;5092324;28;20040;-67
2023/06/17 07:25:59;;;;;;;17.48;7.80;;;20.50;99.90;;;;;;5094156;28;20048;-68
2023/06/17 07:28:45;;;;;;;11.13;7.30;;;20.60;99.90;;;;;;5092298;28;20419;-67
2023/06/17 07:31:31;;;;;;;12.95;8.05;;;20.50;99.90;;;;;;5094289;28;20028;-67
2023/06/17 07:34:17;;;;;;;12.38;8.13;;;20.50;99.90;;;;;;5104355;28;20475;-67
2023/06/17 07:37:03;;;;;;;10.45;8.27;;;20.50;99.90;;;;;;5089898;28;20287;-67
2023/06/17 07:39:49;;;;;;;9.60;8.02;;;20.50;99.90;;;;;;5092764;28;20031;-67
2023/06/17 07:42:37;;;;;;;9.35;8.15;;;20.40;99.90;;;;;;5091009;28;20044;-67
2023/06/17 07:45:24;;;;;;;12.88;8.35;;;20.50;99.90;;;;;;5098493;28;20054;-69
2023/06/17 07:48:09;;;;;;;10.80;8.07;;;20.50;99.90;;;;;;5102905;28;20031;-69
2023/06/17 07:50:55;;;;;;;11.68;8.10;;;20.50;99.90;;;;;;5093646;28;20036;-69
2023/06/17 07:53:41;;;;;;;11.68;8.55;;;20.50;99.90;;;;;;5099467;28;20908;-69
2023/06/17 07:56:27;;;;;;;12.77;8.07;;;20.50;99.90;;;;;;5098950;28;20054;-69
2023/06/17 07:59:13;;;;;;;11.68;8.35;;;20.60;99.90;;;;;;5097653;28;20024;-69
2023/06/17 08:01:59;;;;;;;11.55;8.40;;;20.60;99.70;;;;;;5091350;28;20044;-69
2023/06/17 08:04:45;;;;;;;10.95;8.35;;;20.70;99.90;;;;;;5090858;28;20381;-67
2023/06/17 08:07:31;;;;;;;11.00;8.48;;;20.80;99.90;;;;;;5091908;28;20032;-69
2023/06/17 08:10:17;;;;;;;11.25;8.73;;;20.90;99.90;;;;;;5092915;28;20024;-69
2023/06/17 08:13:03;;;;;;;12.02;8.65;;;20.80;99.60;;;;;;5092275;28;20067;-69
2023/06/17 08:15:51;;;;;;;10.88;8.93;;;20.70;99.60;;;;;;5099639;28;20544;-69
2023/06/17 08:18:37;;;;;;;14.73;8.40;;;20.80;99.40;;;;;;5091880;28;20059;-69
2023/06/17 08:21:23;;;;;;;11.80;8.88;;;20.80;99.50;;;;;;5106310;28;20028;-69
2023/06/17 08:24:25;;;;;;;10.50;7.47;;;20.90;99.60;;;;;;5094396;28;20031;-68
2023/06/17 08:27:12;;;;;;;12.57;9.10;;;21.10;99.80;;;;;;5098313;28;20501;-69
2023/06/17 08:29:58;;;;;;;9.73;7.57;;;21.30;99.40;;;;;;5091804;28;20089;-69
2023/06/17 08:32:44;;;;;;;10.38;7.90;;;21.50;99.10;;;;;;5095686;28;20451;-69
2023/06/17 08:35:30;;;;;;;10.20;8.27;;;21.70;98.80;;;;;;5094006;28;20055;-68
2023/06/17 08:38:16;;;;;;;9.43;7.70;;;21.70;98.60;;;;;;5089976;28;20054;-69
2023/06/17 08:41:02;;;;;;;10.88;8.45;;;21.70;98.60;;;;;;5095500;28;20436;-69
2023/06/17 08:43:51;;;;;;;9.63;7.80;;;21.70;98.30;;;;;;5090072;28;20403;-69
2023/06/17 08:46:39;;;;;;;10.73;7.85;;;21.80;98.30;;;;;;5100597;27;20035;-69
2023/06/17 08:49:27;;;;;;;9.60;7.32;;;21.80;98.00;;;;;;5089361;28;20401;-69
2023/06/17 08:52:15;;;;;;;8.98;7.28;;;21.80;97.80;;;;;;5095846;28;20130;-70
2023/06/17 08:55:01;;;;;;;9.02;6.45;;;21.70;97.50;;;;;;5099961;28;20104;-69
2023/06/17 08:57:50;;;;;;;8.80;6.68;;;21.70;97.30;;;;;;5089969;28;20524;-68
2023/06/17 09:00:36;;;;;;;8.77;6.88;;;21.70;97.30;;;;;;5093451;28;20028;-67
2023/06/17 09:03:25;;;;;;;9.05;7.43;;;21.80;97.30;;;;;;5102206;27;20035;-68
2023/06/17 09:06:29;;;;;;;10.07;8.15;;;21.70;97.00;;;;;;5090054;28;20040;-67
2023/06/17 09:09:15;;;;;;;9.32;7.43;;;21.60;97.20;;;;;;5089826;28;20119;-70
2023/06/17 09:12:05;;;;;;;10.48;6.90;;;21.60;97.30;;;;;;5088671;28;20308;-68
2023/06/17 09:14:54;;;;;;;8.98;7.28;;;21.60;97.30;;;;;;5091886;28;20035;-69
2023/06/17 09:17:43;;;;;;;10.32;7.28;;;21.70;97.40;;;;;;5100455;28;20553;-67
2023/06/17 09:20:32;;;;;;;8.57;7.00;;;21.80;97.30;;;;;;5093518;27;20043;-69
2023/06/17 09:23:18;;;;;;;9.93;6.88;;;21.80;97.30;;;;;;5089683;28;20067;-68
2023/06/17 09:26:04;;;;;;;8.05;6.30;;;21.90;97.40;;;;;;5091357;28;20024;-69
2023/06/17 09:28:51;;;;;;;8.10;6.30;;;22.00;97.00;;;;;;5092949;28;20080;-69
2023/06/17 09:31:48;;;;;;;10.38;7.55;;;21.90;96.80;;;;;;5090401;28;20036;-68
2023/06/17 09:34:34;;;;;;;8.95;7.00;;;21.80;96.70;;;;;;5098812;28;20468;-68
2023/06/17 09:37:20;;;;;;;8.45;7.18;;;21.80;96.90;;;;;;5090661;28;20040;-68
2023/06/17 09:40:07;;;;;;;10.20;7.88;;;21.80;97.00;;;;;;5090883;28;20032;-69
2023/06/17 09:42:53;;;;;;;12.07;7.10;;;21.70;97.20;;;;;;5091807;28;20040;-68
2023/06/17 09:45:39;;;;;;;10.00;7.13;;;21.70;97.30;;;;;;5093101;28;20020;-68
2023/06/17 09:48:37;;;;;;;8.85;7.25;;;21.80;97.20;;;;;;5090083;28;20050;-65
2023/06/17 09:51:23;;;;;;;10.50;6.70;;;21.90;97.30;;;;;;5098453;28;20024;-70
2023/06/17 09:54:10;;;;;;;9.88;7.65;;;22.00;96.90;;;;;;5092330;28;20089;-70
2023/06/17 09:56:58;;;;;;;8.48;6.60;;;22.00;97.10;;;;;;5091098;28;20126;-69
2023/06/17 09:59:47;;;;;;;10.73;6.78;;;22.00;96.90;;;;;;5093704;28;20063;-70
2023/06/17 10:02:32;;;;;;;11.00;7.63;;;22.00;96.70;;;;;;5077891;28;20593;-69
2023/06/17 10:05:20;;;;;;;10.50;8.13;;;21.90;96.70;;;;;;5089488;28;20275;-70
2023/06/17 10:08:06;;;;;;;11.07;7.63;;;21.90;96.70;;;;;;5091742;28;20134;-71
2023/06/17 10:10:55;;;;;;;9.15;7.05;;;21.80;96.70;;;;;;5098106;28;20118;-70
2023/06/17 10:13:42;;;;;;;10.05;8.18;;;21.90;96.90;;;;;;5087113;28;20031;-70
2023/06/17 10:16:33;;;;;;;7.82;6.68;;;22.00;96.90;;;;;;5097417;28;20092;-69
2023/06/17 10:19:27;;;;;;;9.85;7.60;;;22.10;96.80;;;;;;5101025;28;20043;-69
2023/06/17 10:22:16;;;;;;;10.85;6.57;;;22.10;96.50;;;;;;5086671;28;20032;-69
2023/06/17 10:25:02;;;;;;;9.73;6.45;;;21.90;96.70;;;;;;5089340;28;20042;-70
2023/06/17 10:27:48;;;;;;;8.38;6.95;;;22.00;96.80;;;;;;5095639;28;20023;-70
2023/06/17 10:30:35;;;;;;;10.65;7.50;;;22.00;96.80;;;;;;5102533;28;20106;-70
2023/06/17 10:33:27;;;;;;;8.80;6.78;;;22.00;96.60;;;;;;5108482;28;20110;-70
2023/06/17 10:36:14;;;;;;;9.00;6.72;;;22.00;96.30;;;;;;5079521;28;20131;-70
2023/06/17 10:39:10;;;;;;;8.95;7.20;;;22.00;96.50;;;;;;5108787;28;20373;-71
2023/06/17 10:41:59;;;;;;;7.63;6.65;;;22.00;96.60;;;;;;5076456;28;20031;-70
2023/06/17 10:44:49;;;;;;;10.10;6.97;;;21.90;96.40;;;;;;5103648;28;20396;-71
2023/06/17 10:47:35;;;;;;;10.95;7.40;;;22.00;96.40;;;;;;5089397;28;20404;-70
2023/06/17 10:50:21;;;;;;;9.90;7.10;;;22.00;96.40;;;;;;5095556;28;20019;-70
2023/06/17 10:53:07;;;;;;;9.07;7.13;;;22.00;96.20;;;;;;5091597;28;20110;-70
2023/06/17 10:55:54;;;;;;;8.20;6.65;;;22.00;96.20;;;;;;5101285;28;20030;-70
2023/06/17 10:58:47;;;;;;;10.55;6.97;;;22.00;95.90;;;;;;5106878;28;20031;-71
2023/06/17 11:01:33;;;;;;;8.40;6.55;;;22.00;95.90;;;;;;5095692;28;20043;-71
2023/06/17 11:04:19;;;;;;;8.25;6.80;;;22.00;95.60;;;;;;5096236;28;20020;-71
2023/06/17 11:07:05;;;;;;;7.45;5.82;;;22.00;95.60;;;;;;5104152;28;20031;-72
2023/06/17 11:09:51;;;;;;;10.10;6.88;;;22.10;95.80;;;;;;5094286;28;20024;-69
2023/06/17 11:12:39;;;;;;;7.00;5.45;;;22.30;95.40;;;;;;5106762;28;20035;-69
2023/06/17 11:15:25;;;;;;;7.25;5.72;;;22.30;95.50;;;;;;5098495;28;20078;-69
2023/06/17 11:18:11;;;;;;;6.78;4.90;;;22.50;95.10;;;;;;5099402;27;20595;-69
2023/06/17 11:20:57;;;;;;;8.25;6.00;;;22.60;94.80;;;;;;5097823;27;20043;-70
2023/06/17 11:23:43;;;;;;;7.82;5.63;;;22.90;94.50;;;;;;5120633;27;20031;-69
2023/06/17 11:26:29;;;;;;;6.97;5.10;;;23.00;94.30;;;;;;5095237;28;20440;-69
2023/06/17 11:29:18;;;;;;;7.00;5.40;;;23.20;93.70;;;;;;5094171;28;20043;-68
2023/06/17 11:32:04;;;;;;;6.80;5.47;;;23.30;93.30;;;;;;5103171;28;20391;-71
2023/06/17 11:34:51;;;;;;;6.68;5.25;;;23.30;93.70;;;;;;5108016;28;20112;-68
2023/06/17 11:37:38;;;;;;;6.38;4.78;;;23.30;93.50;;;;;;5107680;27;20130;-68
2023/06/17 11:40:24;;;;;;;6.18;4.75;;;23.30;93.60;;;;;;5099194;28;20471;-67
2023/06/17 11:43:10;;;;;;;9.95;5.70;;;23.20;94.20;;;;;;5101784;27;20454;-66
2023/06/17 11:45:57;;;;;;;8.02;4.97;;;23.00;95.30;;;;;;5097070;28;20031;-66
2023/06/17 11:48:46;;;;;;;6.93;5.82;;;22.70;95.30;;;;;;5090671;28;20047;-67
2023/06/17 11:51:32;;;;;;;11.60;6.88;;;22.50;96.40;;;;;;5090646;28;20078;-67
2023/06/17 11:54:19;;;;;;;8.43;5.60;;;22.30;96.90;;;;;;5091409;28;20043;-66
2023/06/17 11:57:05;;;;;;;7.30;4.88;;;22.20;96.90;;;;;;5091744;28;20047;-66
2023/06/17 11:59:57;;;;;;;7.22;5.28;;;22.20;97.40;;;;;;5079076;28;20085;-66
2023/06/17 12:02:43;;;;;;;6.18;4.68;;;22.10;97.30;;;;;;5090398;28;20039;-67
2023/06/17 12:05:29;;;;;;;6.90;4.72;;;22.00;97.30;;;;;;5091603;28;20077;-69
2023/06/17 12:08:16;;;;;;;9.60;5.70;;;22.00;97.50;;;;;;5091393;28;20032;-69
2023/06/17 12:11:07;;;;;;;6.78;5.35;;;22.00;97.60;;;;;;5094860;28;20040;-69
2023/06/17 12:13:54;;;;;;;8.43;5.22;;;22.00;97.60;;;;;;5091832;28;20044;-69
2023/06/17 12:16:41;;;;;;;7.00;4.47;;;22.00;97.40;;;;;;5093513;28;20039;-69
2023/06/17 12:19:28;;;;;;;9.23;5.00;;;22.00;97.40;;;;;;5109841;28;20385;-66
2023/06/17 12:22:14;;;;;;;6.10;4.60;;;21.90;97.20;;;;;;5091600;28;20036;-67
2023/06/17 12:25:02;;;;;;;7.38;4.70;;;21.90;97.20;;;;;;5090984;28;20428;-66
2023/06/17 12:27:50;;;;;;;4.80;3.65;;;21.90;97.20;;;;;;5089755;28;20040;-67
2023/06/17 12:30:36;;;;;;;6.22;4.03;;;21.90;96.90;;;;;;5090673;28;20181;-66
2023/06/17 12:33:21;;;;;;;7.45;3.42;;;21.90;96.70;;;;;;5090323;28;20043;-67
2023/06/17 12:36:07;;;;;;;5.43;3.40;;;21.90;96.90;;;;;;5102774;28;20043;-66
2023/06/17 12:38:53;;;;;;;6.57;4.13;;;21.90;96.90;;;;;;5110245;28;20824;-66
2023/06/17 12:41:39;;;;;;;5.72;3.97;;;22.00;96.90;;;;;;5092314;28;20035;-66
2023/06/17 12:44:25;;;;;;;6.10;3.90;;;22.00;97.00;;;;;;5089845;28;20035;-66
2023/06/17 12:47:12;;;;;;;5.53;3.85;;;22.00;96.90;;;;;;5090090;28;20028;-67
2023/06/17 12:49:58;;;;;;;6.55;4.50;;;22.00;97.00;;;;;;5090351;28;20039;-67
2023/06/17 12:52:49;;;;;;;5.93;3.75;;;22.00;96.90;;;;;;5089178;28;20028;-67
2023/06/17 12:55:35;;;;;;;5.18;3.97;;;22.00;96.90;;;;;;5089337;28;20435;-67
2023/06/17 12:58:22;;;;;;;9.40;4.53;;;22.00;96.80;;;;;;5088922;28;20047;-67
2023/06/17 13:01:08;;;;;;;5.28;3.58;;;22.00;96.50;;;;;;5079291;28;20093;-67
2023/06/17 13:03:54;;;;;;;5.72;3.95;;;22.00;96.10;;;;;;5091217;28;20131;-67
2023/06/17 13:06:39;;;;;;;6.20;4.35;;;21.90;96.30;;;;;;5091421;28;20043;-67
2023/06/17 13:09:26;;;;;;;5.35;4.00;;;21.80;96.30;;;;;;5088959;28;20039;-66
2023/06/17 13:12:12;;;;;;;6.38;3.80;;;21.70;96.40;;;;;;5091187;28;20035;-66
2023/06/17 13:14:57;;;;;;;5.43;4.05;;;21.60;96.50;;;;;;5089113;28;20036;-66
2023/06/17 13:17:43;;;;;;;6.47;3.80;;;21.50;96.70;;;;;;5090141;28;20118;-66
2023/06/17 13:20:30;;;;;;;7.28;4.28;;;21.40;96.90;;;;;;5097530;28;20461;-66
2023/06/17 13:23:16;;;;;;;6.80;4.05;;;21.40;97.30;;;;;;5109125;28;20040;-66
2023/06/17 13:26:01;;;;;;;5.65;4.57;;;21.30;97.50;;;;;;5107548;28;20031;-66
2023/06/17 13:28:48;;;;;;;5.93;4.70;;;21.20;97.20;;;;;;5105558;28;20070;-66
2023/06/17 13:31:34;;;;;;;8.27;4.80;;;21.10;97.40;;;;;;5093061;28;20039;-66
2023/06/17 13:34:20;;;;;;;7.18;4.55;;;21.10;97.70;;;;;;5088396;28;20048;-66
2023/06/17 13:37:06;;;;;;;8.18;5.22;;;21.40;98.10;;;;;;5108759;28;20126;-65
2023/06/17 13:39:52;;;;;;;7.07;4.53;;;21.60;98.20;;;;;;5106615;28;20031;-66
2023/06/17 13:42:38;;;;;;;5.90;4.88;;;21.90;98.20;;;;;;5088688;28;20032;-66
2023/06/17 13:45:25;;;;;;;9.70;4.80;;;22.20;97.90;;;;;;5090000;28;20077;-67
2023/06/17 13:48:11;;;;;;;6.88;4.45;;;22.30;97.60;;;;;;5089379;28;20040;-67
2023/06/17 13:50:58;;;;;;;5.30;4.07;;;22.40;97.50;;;;;;5088844;28;20040;-67
2023/06/17 13:53:43;;;;;;;4.90;4.00;;;22.40;97.00;;;;;;5088814;28;20032;-67
2023/06/17 13:56:29;;;;;;;5.40;4.25;;;22.30;97.20;;;;;;5089923;28;20048;-67
2023/06/17 13:59:16;;;;;;;7.43;4.78;;;22.30;97.00;;;;;;5110313;28;20498;-67
2023/06/17 14:02:02;;;;;;;6.72;5.00;;;22.20;96.70;;;;;;5092013;28;20040;-66
2023/06/17 14:04:50;;;;;;;6.90;5.25;;;22.10;96.90;;;;;;5091174;28;20024;-66
2023/06/17 14:07:36;;;;;;;8.02;5.05;;;22.00;97.20;;;;;;5088143;28;20043;-67
2023/06/17 14:10:24;;;;;;;6.25;4.57;;;22.00;97.20;;;;;;5090351;28;20032;-67
2023/06/17 14:13:12;;;;;;;7.03;4.85;;;21.90;96.90;;;;;;5089811;28;20122;-68
2023/06/17 14:16:00;;;;;;;7.07;4.63;;;21.80;96.80;;;;;;5089610;28;20036;-67
2023/06/17 14:18:46;;;;;;;4.30;3.58;;;21.70;96.60;;;;;;5089240;28;20036;-67
2023/06/17 14:21:34;;;;;;;8.20;4.28;;;21.70;96.70;;;;;;5088237;28;20036;-67
2023/06/17 14:24:20;;;;;;;5.78;5.00;;;21.60;96.70;;;;;;5089524;28;20165;-67